Time;durP1;ratioP1;P1;durP2;ratioP2;P2;SDS_P1;SDS_P2;PMS_P1;PMS_P2;Temp;Humidity;BMP_temperature;BMP_pressure;BME280_temperature;BME280_humidity;BME280_pressure;Samples;Min_cycle;Max_cycle;Signal;HPM_P1;HPM_P2
2021/07/10 00:01:38;;;;;;;1999.90;999.90;;;8.90;99.90;;;;;;5053012;28;20650;-45
2021/07/10 00:04:06;;;;;;;1999.90;999.90;;;8.90;99.90;;;;;;5052990;28;20211;-43
2021/07/10 00:06:33;;;;;;;1999.90;999.90;;;8.90;99.90;;;;;;5052814;28;20209;-43
2021/07/10 00:09:00;;;;;;;1999.90;999.90;;;8.80;99.90;;;;;;5052880;28;20573;-42
2021/07/10 00:11:27;;;;;;;1999.90;999.90;;;8.80;99.90;;;;;;5052650;28;20631;-44
2021/07/10 00:13:53;;;;;;;1999.90;999.90;;;8.70;99.90;;;;;;5052877;28;20616;-42
2021/07/10 00:16:20;;;;;;;1999.90;999.90;;;8.70;99.90;;;;;;5052745;28;20172;-42
2021/07/10 00:18:47;;;;;;;1999.90;999.90;;;8.60;99.90;;;;;;5052976;28;20180;-42
2021/07/10 00:21:14;;;;;;;1999.90;999.90;;;8.60;99.90;;;;;;5052879;28;20172;-42
2021/07/10 00:23:41;;;;;;;1999.90;999.90;;;8.50;99.90;;;;;;5052795;28;20307;-42
2021/07/10 00:26:08;;;;;;;1999.90;999.90;;;8.50;99.90;;;;;;5052638;28;20209;-42
2021/07/10 00:28:34;;;;;;;1999.90;999.90;;;8.40;99.90;;;;;;5052690;28;20169;-42
2021/07/10 00:31:01;;;;;;;1999.90;999.90;;;8.50;99.90;;;;;;5052725;28;20271;-42
2021/07/10 00:33:28;;;;;;;1999.90;999.90;;;8.40;99.90;;;;;;5052661;28;20670;-42
2021/07/10 00:35:55;;;;;;;1999.90;999.90;;;8.40;99.90;;;;;;5052723;28;20176;-42
2021/07/10 00:38:22;;;;;;;1999.90;999.90;;;8.30;99.90;;;;;;5052633;28;20256;-42
2021/07/10 00:40:49;;;;;;;1999.90;999.90;;;8.30;99.90;;;;;;5052732;28;20265;-42
2021/07/10 00:43:16;;;;;;;1999.90;999.90;;;8.20;99.90;;;;;;5052689;28;20196;-42
2021/07/10 00:45:42;;;;;;;1999.90;999.90;;;8.20;99.90;;;;;;5052670;28;20564;-43
2021/07/10 00:48:09;;;;;;;1999.90;999.90;;;8.30;99.90;;;;;;5052549;28;20173;-42
2021/07/10 00:50:36;;;;;;;1999.90;999.90;;;8.30;99.90;;;;;;5052460;28;20187;-42
2021/07/10 00:53:03;;;;;;;1999.90;999.90;;;8.40;99.90;;;;;;5052487;28;20251;-42
2021/07/10 00:55:30;;;;;;;1999.90;999.90;;;8.40;99.90;;;;;;5052328;28;20230;-42
2021/07/10 00:57:59;;;;;;;1999.90;999.90;;;8.40;99.90;;;;;;5052447;28;20173;-42
2021/07/10 01:00:26;;;;;;;1999.90;999.90;;;8.40;99.90;;;;;;5052747;28;20534;-43
2021/07/10 01:02:56;;;;;;;1999.90;999.90;;;8.30;99.90;;;;;;5052448;28;20199;-42
2021/07/10 01:05:26;;;;;;;1999.90;999.90;;;8.30;99.90;;;;;;5052666;28;20306;-42
2021/07/10 01:07:58;;;;;;;1999.90;999.90;;;8.30;99.90;;;;;;5052375;28;20196;-42
2021/07/10 01:10:25;;;;;;;1999.90;999.90;;;8.30;99.90;;;;;;5052331;28;20256;-42
2021/07/10 01:12:54;;;;;;;1999.90;999.90;;;8.20;99.90;;;;;;5051907;28;20228;-42
2021/07/10 01:15:23;;;;;;;1999.90;999.90;;;8.20;99.90;;;;;;5052421;28;20226;-42
2021/07/10 01:17:50;;;;;;;1999.90;999.90;;;8.20;99.90;;;;;;5052348;28;20303;-42
2021/07/10 01:20:21;;;;;;;1999.90;999.90;;;8.10;99.90;;;;;;5052297;28;20227;-42
2021/07/10 01:22:50;;;;;;;1999.90;999.90;;;8.20;99.90;;;;;;5052305;28;20191;-42
2021/07/10 01:25:21;;;;;;;1999.90;999.90;;;8.20;99.90;;;;;;5052159;28;20207;-42
2021/07/10 01:27:50;;;;;;;1999.90;999.90;;;8.10;99.90;;;;;;5052234;28;20184;-42
2021/07/10 01:30:20;;;;;;;1999.90;999.90;;;8.10;99.90;;;;;;5055244;28;20227;-45
2021/07/10 01:32:51;;;;;;;1999.90;999.90;;;8.10;99.90;;;;;;5056045;28;20560;-42
2021/07/10 01:35:19;;;;;;;1999.90;999.90;;;8.10;99.90;;;;;;5055655;28;20176;-42
2021/07/10 01:37:46;;;;;;;1999.90;999.90;;;8.10;99.90;;;;;;5055223;28;20276;-42
2021/07/10 01:40:15;;;;;;;1999.90;999.90;;;8.10;99.90;;;;;;5055643;28;20679;-42
2021/07/10 01:42:43;;;;;;;1999.90;999.90;;;8.10;99.90;;;;;;5055553;28;20180;-42
2021/07/10 01:45:10;;;;;;;1999.90;999.90;;;8.10;99.90;;;;;;5055559;28;20200;-43
2021/07/10 01:47:37;;;;;;;1999.90;999.90;;;8.00;99.90;;;;;;5055569;28;20177;-45
2021/07/10 01:50:07;;;;;;;1999.90;999.90;;;7.90;99.90;;;;;;5055553;28;20190;-42
2021/07/10 01:52:34;;;;;;;1999.90;999.90;;;7.90;99.90;;;;;;5055422;28;20204;-43
2021/07/10 01:55:03;;;;;;;1999.90;999.90;;;7.70;99.90;;;;;;5055407;28;20634;-43
2021/07/10 01:57:30;;;;;;;1999.90;999.90;;;7.60;99.90;;;;;;5055387;28;20623;-44
2021/07/10 01:59:56;;;;;;;1999.90;999.90;;;7.70;99.90;;;;;;5055376;28;20255;-42
2021/07/10 02:02:23;;;;;;;1999.90;999.90;;;7.70;99.90;;;;;;5055399;28;20627;-43
2021/07/10 02:04:52;;;;;;;1999.90;999.90;;;7.60;99.90;;;;;;5055061;28;20238;-42
2021/07/10 02:07:19;;;;;;;1999.90;999.90;;;7.50;99.90;;;;;;5055362;28;20638;-44
2021/07/10 02:09:46;;;;;;;1999.90;999.90;;;7.50;99.90;;;;;;5055149;28;20579;-42
2021/07/10 02:12:15;;;;;;;1999.90;999.90;;;7.40;99.90;;;;;;5054956;28;20236;-44
2021/07/10 02:14:42;;;;;;;1999.90;999.90;;;7.60;99.90;;;;;;5055086;28;20528;-42
2021/07/10 02:17:09;;;;;;;1999.90;999.90;;;7.50;99.90;;;;;;5054992;28;20508;-42
2021/07/10 02:19:36;;;;;;;1999.90;999.90;;;7.50;99.90;;;;;;5054956;28;20251;-42
2021/07/10 02:22:05;;;;;;;1999.90;999.90;;;7.60;99.90;;;;;;5054920;28;20705;-41
2021/07/10 02:24:32;;;;;;;1999.90;999.90;;;7.60;99.90;;;;;;5054881;28;20168;-42
2021/07/10 02:26:59;;;;;;;1999.90;999.90;;;7.60;99.90;;;;;;5054789;28;20180;-42
2021/07/10 02:29:26;;;;;;;1999.90;999.90;;;7.50;99.90;;;;;;5054965;28;20196;-42
2021/07/10 02:31:53;;;;;;;1999.90;999.90;;;7.60;99.90;;;;;;5054838;28;20231;-42
2021/07/10 02:34:21;;;;;;;1999.90;999.90;;;7.60;99.90;;;;;;5054726;28;20164;-42
2021/07/10 02:36:48;;;;;;;1999.90;999.90;;;7.60;99.90;;;;;;5054551;28;20185;-42
2021/07/10 02:39:14;;;;;;;1999.90;999.90;;;7.50;99.90;;;;;;5054584;28;20173;-41
2021/07/10 02:41:41;;;;;;;1999.90;999.90;;;7.50;99.90;;;;;;5053340;28;20654;-44
2021/07/10 02:44:08;;;;;;;1999.90;999.90;;;7.30;99.90;;;;;;5054520;28;20264;-42
2021/07/10 02:46:35;;;;;;;1999.90;999.90;;;7.30;99.90;;;;;;5054356;28;20201;-42
2021/07/10 02:49:02;;;;;;;1999.90;999.90;;;7.20;99.90;;;;;;5054446;28;20164;-42
2021/07/10 02:51:29;;;;;;;1999.90;999.90;;;7.20;99.90;;;;;;5054425;28;20175;-42
2021/07/10 02:53:56;;;;;;;1999.90;999.90;;;7.30;99.90;;;;;;5054392;28;20624;-42
2021/07/10 02:56:24;;;;;;;1999.90;999.90;;;7.30;99.90;;;;;;5054232;28;20180;-41
2021/07/10 02:58:52;;;;;;;1999.90;999.90;;;7.20;99.90;;;;;;5054163;28;20518;-43
2021/07/10 03:01:20;;;;;;;1999.90;999.90;;;7.20;99.90;;;;;;5054220;28;20248;-43
2021/07/10 03:03:47;;;;;;;1999.90;999.90;;;7.20;99.90;;;;;;5054058;28;20176;-41
2021/07/10 03:06:15;;;;;;;1999.90;999.90;;;7.20;99.90;;;;;;5054045;28;20233;-42
2021/07/10 03:08:42;;;;;;;1999.90;999.90;;;7.30;99.90;;;;;;5053981;28;20300;-42
2021/07/10 03:11:11;;;;;;;1999.90;999.90;;;7.30;99.90;;;;;;5053857;28;20580;-42
2021/07/10 03:13:37;;;;;;;1999.90;999.90;;;7.20;99.90;;;;;;5053969;28;20559;-42
2021/07/10 03:16:05;;;;;;;1999.90;999.90;;;7.10;99.90;;;;;;5053925;28;20199;-43
2021/07/10 03:18:31;;;;;;;1999.90;999.90;;;7.10;99.90;;;;;;5053988;28;20170;-42
2021/07/10 03:20:58;;;;;;;1999.90;999.90;;;7.00;99.90;;;;;;5053754;28;20272;-45
2021/07/10 03:23:25;;;;;;;1999.90;999.90;;;7.00;99.90;;;;;;5053777;28;20208;-42
2021/07/10 03:25:52;;;;;;;1999.90;999.90;;;7.00;99.90;;;;;;5053648;28;20199;-42
2021/07/10 03:28:19;;;;;;;1999.90;999.90;;;7.00;99.90;;;;;;5053611;28;20188;-42
2021/07/10 03:30:50;;;;;;;1999.90;999.90;;;6.90;99.90;;;;;;5053638;28;20660;-42
2021/07/10 03:33:18;;;;;;;1999.90;999.90;;;6.90;99.90;;;;;;5053471;28;20284;-42
2021/07/10 03:35:45;;;;;;;1999.90;999.90;;;7.00;99.90;;;;;;5053528;28;20176;-42
2021/07/10 03:38:11;;;;;;;1999.90;999.90;;;6.90;99.90;;;;;;5053475;28;20175;-42
2021/07/10 03:40:38;;;;;;;1999.90;999.90;;;7.00;99.90;;;;;;5053347;28;20613;-42
2021/07/10 03:43:05;;;;;;;1999.90;999.90;;;6.90;99.90;;;;;;5053481;28;20176;-42
2021/07/10 03:45:32;;;;;;;1999.90;999.90;;;6.90;99.90;;;;;;5053277;28;20279;-42
2021/07/10 03:47:59;;;;;;;1999.90;999.90;;;6.90;99.90;;;;;;5053281;28;20208;-42
2021/07/10 03:50:27;;;;;;;1999.90;999.90;;;7.00;99.90;;;;;;5053181;28;20582;-41
2021/07/10 03:52:54;;;;;;;1999.90;999.90;;;6.90;99.90;;;;;;5052789;28;20187;-42
2021/07/10 03:55:21;;;;;;;1999.90;999.90;;;6.90;99.90;;;;;;5053245;28;20632;-42
2021/07/10 03:57:48;;;;;;;1999.90;999.90;;;6.90;99.90;;;;;;5053097;28;20532;-42
2021/07/10 04:00:19;;;;;;;1999.90;999.90;;;6.90;99.90;;;;;;5053140;28;20244;-42
2021/07/10 04:02:46;;;;;;;1999.90;999.90;;;6.90;99.90;;;;;;5052968;28;20168;-42
2021/07/10 04:05:13;;;;;;;1999.90;999.90;;;6.90;99.90;;;;;;5052973;28;20203;-42
2021/07/10 04:07:40;;;;;;;1999.90;999.90;;;6.80;99.90;;;;;;5052857;28;20193;-42
2021/07/10 04:10:08;;;;;;;1999.90;999.90;;;6.70;99.90;;;;;;5052959;28;20169;-41
2021/07/10 04:12:35;;;;;;;1999.90;999.90;;;6.60;99.90;;;;;;5052816;28;20226;-41
2021/07/10 04:15:03;;;;;;;1999.90;999.90;;;6.60;99.90;;;;;;5052999;28;20174;-41
2021/07/10 04:17:31;;;;;;;1999.90;999.90;;;6.50;99.90;;;;;;5052826;28;20172;-45
2021/07/10 04:19:59;;;;;;;1999.90;999.90;;;6.60;99.90;;;;;;5052631;28;20190;-42
2021/07/10 04:22:26;;;;;;;1999.90;999.90;;;6.70;99.90;;;;;;5052757;28;20170;-46
2021/07/10 04:24:53;;;;;;;1999.90;999.90;;;6.60;99.90;;;;;;5052669;28;20166;-42
2021/07/10 04:27:20;;;;;;;1999.90;999.90;;;6.60;99.90;;;;;;5052790;28;20179;-45
2021/07/10 04:29:48;;;;;;;1999.90;999.90;;;6.60;99.90;;;;;;5052741;28;20191;-41
2021/07/10 04:32:17;;;;;;;1999.90;999.90;;;6.60;99.90;;;;;;5052607;28;20264;-44
2021/07/10 04:34:44;;;;;;;1999.90;999.90;;;6.60;99.90;;;;;;5052676;28;20175;-42
2021/07/10 04:37:11;;;;;;;1999.90;999.90;;;6.70;99.90;;;;;;5052602;28;20200;-42
2021/07/10 04:39:37;;;;;;;1999.90;999.90;;;6.70;99.90;;;;;;5052554;28;20167;-42
2021/07/10 04:42:05;;;;;;;1999.90;999.90;;;6.70;99.90;;;;;;5052861;28;20256;-45
2021/07/10 04:44:32;;;;;;;1999.90;999.90;;;6.70;99.90;;;;;;5052581;28;20161;-42
2021/07/10 04:46:59;;;;;;;1999.90;999.90;;;6.80;99.90;;;;;;5052684;28;20278;-42
2021/07/10 04:49:26;;;;;;;1999.90;999.90;;;6.70;99.90;;;;;;5052509;28;20199;-44
2021/07/10 04:51:53;;;;;;;1999.90;999.90;;;6.80;99.90;;;;;;5052504;28;20536;-42
2021/07/10 04:54:20;;;;;;;1999.90;999.90;;;6.80;99.90;;;;;;5052577;28;20170;-43
2021/07/10 04:56:46;;;;;;;1999.90;999.90;;;6.90;99.90;;;;;;5052631;28;20177;-42
2021/07/10 04:59:13;;;;;;;1999.90;999.90;;;6.90;99.90;;;;;;5052705;28;20162;-43
2021/07/10 05:01:40;;;;;;;1999.90;999.90;;;6.90;99.90;;;;;;5052493;28;20170;-43
2021/07/10 05:04:07;;;;;;;1999.90;999.90;;;7.00;99.90;;;;;;5053877;28;20540;-42
2021/07/10 05:06:34;;;;;;;1999.90;999.90;;;7.10;99.90;;;;;;5056271;28;20214;-42
2021/07/10 05:09:00;;;;;;;1999.90;999.90;;;7.20;99.90;;;;;;5056250;28;21244;-42
2021/07/10 05:11:27;;;;;;;1999.90;999.90;;;7.30;99.90;;;;;;5055994;28;20176;-43
2021/07/10 05:13:54;;;;;;;1999.90;999.90;;;7.40;99.90;;;;;;5056158;28;20640;-42
2021/07/10 05:16:21;;;;;;;1999.90;999.90;;;7.50;99.90;;;;;;5056027;28;20218;-42
2021/07/10 05:18:48;;;;;;;1999.90;999.90;;;7.50;99.90;;;;;;5055953;28;20183;-42
2021/07/10 05:21:15;;;;;;;1999.90;999.90;;;7.50;99.90;;;;;;5055962;28;20259;-42
2021/07/10 05:23:42;;;;;;;1999.90;999.90;;;7.50;99.90;;;;;;5056055;28;20183;-42
2021/07/10 05:26:09;;;;;;;1999.90;999.90;;;7.50;99.90;;;;;;5055875;28;20613;-43
2021/07/10 05:28:36;;;;;;;1999.90;999.90;;;7.60;99.90;;;;;;5055893;28;20172;-43
2021/07/10 05:31:04;;;;;;;1999.90;999.90;;;7.60;99.90;;;;;;5055845;28;20179;-42
2021/07/10 05:33:31;;;;;;;1999.90;999.90;;;7.60;99.90;;;;;;5055613;28;20165;-40
2021/07/10 05:35:58;;;;;;;1999.90;999.90;;;7.70;99.90;;;;;;5055715;28;20210;-40
2021/07/10 05:38:26;;;;;;;1999.90;999.90;;;7.70;99.90;;;;;;5055590;28;20185;-41
2021/07/10 05:40:54;;;;;;;1999.90;999.90;;;7.70;99.90;;;;;;5055362;28;20242;-40
2021/07/10 05:43:23;;;;;;;1999.90;999.90;;;7.70;99.90;;;;;;5055403;28;20271;-40
2021/07/10 05:45:51;;;;;;;1999.90;999.90;;;7.70;99.90;;;;;;5038139;28;20550;-40
2021/07/10 05:48:19;;;;;;;1999.90;999.90;;;7.70;99.90;;;;;;5055313;28;20219;-40
2021/07/10 05:50:47;;;;;;;1999.90;999.90;;;7.60;99.90;;;;;;5055302;28;20176;-40
2021/07/10 05:53:14;;;;;;;1999.90;999.90;;;7.60;99.90;;;;;;5055522;28;20173;-40
2021/07/10 05:55:41;;;;;;;1999.90;999.90;;;7.60;99.90;;;;;;5055479;28;20169;-40
2021/07/10 05:58:08;;;;;;;1999.90;999.90;;;7.60;99.90;;;;;;5055292;28;20173;-41
2021/07/10 06:00:35;;;;;;;1999.90;999.90;;;7.60;99.90;;;;;;5055185;28;20188;-43
2021/07/10 06:03:02;;;;;;;1999.90;999.90;;;7.70;99.90;;;;;;5055137;28;20177;-42
2021/07/10 06:05:29;;;;;;;1999.90;999.90;;;7.70;99.90;;;;;;5054962;28;20203;-43
2021/07/10 06:07:56;;;;;;;1999.90;999.90;;;7.70;99.90;;;;;;5055063;28;20187;-42
2021/07/10 06:10:23;;;;;;;1999.90;999.90;;;7.60;99.90;;;;;;5055034;28;20173;-43
2021/07/10 06:12:51;;;;;;;1999.90;999.90;;;7.60;99.90;;;;;;5054798;28;20315;-42
2021/07/10 06:15:18;;;;;;;1999.90;999.90;;;7.60;99.90;;;;;;5054704;28;20527;-45
2021/07/10 06:17:45;;;;;;;1999.90;999.90;;;7.60;99.90;;;;;;5055130;28;20201;-42
2021/07/10 06:20:15;;;;;;;1999.90;999.90;;;7.60;99.90;;;;;;5055012;28;20242;-42
2021/07/10 06:22:44;;;;;;;1999.90;999.90;;;7.60;99.90;;;;;;5054857;28;20649;-43
2021/07/10 06:25:11;;;;;;;1999.90;999.90;;;7.60;99.90;;;;;;5054501;28;20204;-43
2021/07/10 06:27:38;;;;;;;1999.90;999.90;;;7.70;99.90;;;;;;5054670;28;20195;-42
2021/07/10 06:30:08;;;;;;;1999.90;999.90;;;7.70;99.90;;;;;;5054773;28;20165;-43
2021/07/10 06:32:35;;;;;;;1999.90;999.90;;;7.90;99.90;;;;;;5054752;28;20169;-42
2021/07/10 06:35:02;;;;;;;1999.90;999.90;;;8.00;99.90;;;;;;5054635;28;20199;-42
2021/07/10 06:37:29;;;;;;;1999.90;999.90;;;8.00;99.90;;;;;;5054590;28;20186;-42
2021/07/10 06:39:56;;;;;;;1999.90;999.90;;;8.00;99.90;;;;;;5054540;28;20212;-43
2021/07/10 06:42:23;;;;;;;1999.90;999.90;;;8.00;99.90;;;;;;5054493;28;20171;-43
2021/07/10 06:44:50;;;;;;;1999.90;999.90;;;8.10;99.90;;;;;;5054472;28;20169;-43
2021/07/10 06:47:19;;;;;;;1999.90;999.90;;;8.20;99.90;;;;;;5054560;28;20185;-43
2021/07/10 06:49:46;;;;;;;1999.90;999.90;;;8.20;99.90;;;;;;5054471;28;20192;-42
2021/07/10 06:52:13;;;;;;;1999.90;999.90;;;8.20;99.90;;;;;;5054424;28;20177;-43
2021/07/10 06:54:40;;;;;;;1999.90;999.90;;;8.30;99.90;;;;;;5054296;28;20636;-44
2021/07/10 06:57:07;;;;;;;1999.90;999.90;;;8.40;99.90;;;;;;5054328;28;20255;-43
2021/07/10 06:59:33;;;;;;;1999.90;999.90;;;8.50;99.90;;;;;;5054182;28;20180;-44
2021/07/10 07:02:00;;;;;;;1999.90;999.90;;;8.60;99.90;;;;;;5054072;28;20169;-43
2021/07/10 07:04:27;;;;;;;1999.90;999.90;;;8.60;99.90;;;;;;5053902;28;20169;-45
2021/07/10 07:06:54;;;;;;;1999.90;999.90;;;8.70;99.90;;;;;;5053789;28;20196;-43
2021/07/10 07:09:21;;;;;;;1999.90;999.90;;;8.80;99.90;;;;;;5053798;28;20258;-42
2021/07/10 07:11:50;;;;;;;1999.90;999.90;;;8.90;99.90;;;;;;5053749;28;20225;-43
2021/07/10 07:14:17;;;;;;;1999.90;999.90;;;8.90;99.90;;;;;;5053890;28;20161;-43
2021/07/10 07:16:44;;;;;;;1999.90;999.90;;;9.00;99.90;;;;;;5053784;28;20205;-43
2021/07/10 07:19:11;;;;;;;1999.90;999.90;;;9.00;99.90;;;;;;5053793;28;20180;-47
2021/07/10 07:21:38;;;;;;;1999.90;999.90;;;9.00;99.90;;;;;;5053776;28;20173;-43
2021/07/10 07:24:06;;;;;;;1999.90;999.90;;;9.10;99.90;;;;;;5053690;28;20165;-42
2021/07/10 07:26:34;;;;;;;1999.90;999.90;;;9.20;99.90;;;;;;5052890;28;20334;-43
2021/07/10 07:29:02;;;;;;;1999.90;999.90;;;9.30;99.90;;;;;;5053577;28;20192;-43
2021/07/10 07:31:29;;;;;;;1999.90;999.90;;;9.40;99.90;;;;;;5053602;28;20181;-43
2021/07/10 07:33:55;;;;;;;1999.90;999.90;;;9.50;99.90;;;;;;5053542;28;20165;-43
2021/07/10 07:36:24;;;;;;;1999.90;999.90;;;9.60;99.90;;;;;;5053598;28;20193;-43
2021/07/10 07:38:51;;;;;;;1999.90;999.90;;;9.70;99.90;;;;;;5053457;28;20207;-43
2021/07/10 07:41:18;;;;;;;1999.90;999.90;;;9.80;99.90;;;;;;5053302;28;20177;-43
2021/07/10 07:43:46;;;;;;;1999.90;999.90;;;10.00;99.90;;;;;;5053224;28;20628;-43
2021/07/10 07:46:14;;;;;;;1999.90;999.90;;;10.00;99.90;;;;;;5053181;28;20204;-43
2021/07/10 07:48:43;;;;;;;1999.90;999.90;;;10.00;99.90;;;;;;5053124;28;20624;-43
2021/07/10 07:51:18;;;;;;;1999.90;999.90;;;10.00;99.90;;;;;;5053128;28;20181;-43
2021/07/10 07:53:48;;;;;;;1999.90;999.90;;;10.10;99.90;;;;;;5051927;28;20620;-44
2021/07/10 07:56:15;;;;;;;1999.90;999.90;;;10.10;99.90;;;;;;5053081;28;20177;-43
2021/07/10 07:58:42;;;;;;;1999.90;999.90;;;10.10;99.90;;;;;;5052953;28;20169;-43
2021/07/10 08:01:10;;;;;;;1999.90;999.90;;;10.20;99.90;;;;;;5052961;28;20531;-44
2021/07/10 08:03:38;;;;;;;1999.90;999.90;;;10.30;99.90;;;;;;5053171;28;20558;-44
2021/07/10 08:06:05;;;;;;;1999.90;999.90;;;10.50;99.90;;;;;;5053067;28;20208;-43
2021/07/10 08:08:36;;;;;;;1999.90;999.90;;;10.60;99.90;;;;;;5052994;28;20175;-44
2021/07/10 08:11:06;;;;;;;1999.90;999.90;;;10.90;99.90;;;;;;5052902;28;20169;-43
2021/07/10 08:13:34;;;;;;;1999.90;999.90;;;11.10;99.90;;;;;;5052719;28;20225;-44
2021/07/10 08:16:02;;;;;;;1999.90;999.90;;;11.40;99.90;;;;;;5052769;28;20181;-44
2021/07/10 08:18:29;;;;;;;1999.90;999.90;;;11.70;99.90;;;;;;5052862;28;20250;-44
2021/07/10 08:20:56;;;;;;;1999.90;999.90;;;11.90;99.90;;;;;;5052994;28;20173;-44
2021/07/10 08:23:23;;;;;;;1999.90;999.90;;;12.10;99.90;;;;;;5052975;28;20161;-44
2021/07/10 08:25:50;;;;;;;1999.90;999.90;;;12.20;99.90;;;;;;5052719;28;20237;-43
2021/07/10 08:28:17;;;;;;;1999.90;999.90;;;12.30;99.90;;;;;;5052639;28;20493;-43
2021/07/10 08:30:44;;;;;;;1999.90;999.90;;;12.50;99.90;;;;;;5052763;28;20169;-45
2021/07/10 08:33:12;;;;;;;1999.90;999.90;;;12.60;99.90;;;;;;5052660;28;20248;-44
2021/07/10 08:35:39;;;;;;;1999.90;999.90;;;12.80;99.90;;;;;;5052620;28;20188;-43
2021/07/10 08:38:06;;;;;;;1999.90;999.90;;;13.00;99.90;;;;;;5053967;28;20326;-44
2021/07/10 08:40:33;;;;;;;1999.90;999.90;;;13.10;99.90;;;;;;5056690;28;20173;-44
2021/07/10 08:43:00;;;;;;;1999.90;999.90;;;13.20;99.90;;;;;;5056671;28;20219;-44
2021/07/10 08:45:32;;;;;;;1999.90;999.90;;;13.30;99.90;;;;;;5056906;28;20230;-44
2021/07/10 08:48:02;;;;;;;1999.90;999.90;;;13.40;99.90;;;;;;5056556;28;20640;-46
2021/07/10 08:50:29;;;;;;;1999.90;999.90;;;13.50;99.90;;;;;;5056599;28;20165;-44
2021/07/10 08:52:56;;;;;;;1999.90;999.90;;;13.60;99.90;;;;;;5056792;28;20197;-44
2021/07/10 08:55:23;;;;;;;1999.90;999.90;;;13.70;99.90;;;;;;5056493;28;20177;-44
2021/07/10 08:57:52;;;;;;;1999.90;999.90;;;13.80;99.90;;;;;;5056413;28;20275;-44
2021/07/10 09:00:28;;;;;;;1999.90;999.90;;;13.80;99.90;;;;;;5056453;28;20510;-44
2021/07/10 09:02:57;;;;;;;1999.90;999.90;;;13.90;99.90;;;;;;5056677;28;20157;-44
2021/07/10 09:05:25;;;;;;;1999.90;999.90;;;14.10;99.90;;;;;;5056149;28;20204;-44
2021/07/10 09:08:16;;;;;;;1999.90;999.90;;;14.30;99.90;;;;;;5056292;28;20173;-44
2021/07/10 09:11:05;;;;;;;1999.90;999.90;;;14.50;99.90;;;;;;5056213;28;20176;-45
2021/07/10 09:13:37;;;;;;;1999.90;999.90;;;14.70;99.90;;;;;;5056023;28;20275;-44
2021/07/10 09:16:10;;;;;;;1999.90;999.90;;;14.80;99.90;;;;;;5056132;28;20260;-45
2021/07/10 09:18:39;;;;;;;1999.90;999.90;;;14.90;95.70;;;;;;5056232;28;20170;-45
2021/07/10 09:21:06;;;;;;;1999.90;999.90;;;14.90;96.50;;;;;;5055998;28;20168;-44
2021/07/10 09:23:40;;;;;;;1999.90;999.90;;;15.00;97.50;;;;;;5055971;28;20169;-44
2021/07/10 09:26:26;;;;;;;1999.90;999.90;;;15.10;98.60;;;;;;5055918;28;20202;-44
2021/07/10 09:29:00;;;;;;;1999.90;999.90;;;15.10;97.70;;;;;;5055901;28;20162;-48
2021/07/10 09:31:30;;;;;;;1999.90;999.90;;;15.20;96.30;;;;;;5056120;28;20514;-48
2021/07/10 09:34:13;;;;;;;1999.90;999.90;;;15.40;95.90;;;;;;5055985;28;20160;-44
2021/07/10 09:36:52;;;;;;;1999.90;999.90;;;15.40;94.00;;;;;;5055735;28;20230;-46
2021/07/10 09:39:20;;;;;;;1999.90;999.90;;;15.50;95.90;;;;;;5037946;28;20256;-44
2021/07/10 09:41:47;;;;;;;1999.90;999.90;;;15.50;93.80;;;;;;5055709;28;20162;-44
2021/07/10 09:44:16;;;;;;;1999.90;999.90;;;15.50;94.90;;;;;;5055617;28;20165;-44
2021/07/10 09:46:44;;;;;;;1999.90;999.90;;;15.60;94.80;;;;;;5055642;28;20239;-44
2021/07/10 09:49:30;;;;;;;1999.90;999.90;;;15.70;92.00;;;;;;5054865;28;20173;-44
2021/07/10 09:51:58;;;;;;;1999.90;999.90;;;15.60;93.00;;;;;;5055530;28;20519;-45
2021/07/10 09:54:49;;;;;;;1999.90;999.90;;;15.80;93.40;;;;;;5055429;28;20173;-44
2021/07/10 09:57:31;;;;;;;1999.90;999.90;;;16.00;92.50;;;;;;5055057;28;20188;-44
2021/07/10 10:00:12;;;;;;;1999.90;999.90;;;16.00;91.50;;;;;;5055353;28;20181;-44
2021/07/10 10:02:47;;;;;;;1999.90;999.90;;;16.00;88.20;;;;;;5055109;28;20230;-46
2021/07/10 10:05:16;;;;;;;1999.90;999.90;;;16.10;89.20;;;;;;5055114;28;20204;-44
2021/07/10 10:08:03;;;;;;;1999.90;999.90;;;16.20;82.50;;;;;;5055096;28;20169;-44
2021/07/10 10:10:35;;;;;;;1999.90;999.90;;;16.00;86.10;;;;;;5055152;28;20169;-43
2021/07/10 10:13:05;;;;;;;1999.90;999.90;;;16.00;90.20;;;;;;5055108;28;20227;-44
2021/07/10 10:15:35;;;;;;;1999.90;999.90;;;16.10;90.20;;;;;;5055062;28;20179;-44
2021/07/10 10:18:03;;;;;;;1999.90;999.90;;;16.20;90.40;;;;;;5054992;28;20179;-48
2021/07/10 10:20:30;;;;;;;1999.90;999.90;;;16.40;90.10;;;;;;5054890;28;20165;-44
2021/07/10 10:22:59;;;;;;;1999.90;999.90;;;16.50;90.70;;;;;;5054755;28;20193;-50
2021/07/10 10:25:26;;;;;;;1999.90;999.90;;;16.60;87.50;;;;;;5054808;28;20224;-45
2021/07/10 10:27:54;;;;;;;1999.90;999.90;;;16.70;82.00;;;;;;5054624;28;20178;-45
2021/07/10 10:30:22;;;;;;;1999.90;999.90;;;16.70;82.40;;;;;;5054762;28;20173;-45
2021/07/10 10:32:50;;;;;;;1999.90;999.90;;;16.60;77.20;;;;;;5054629;28;20174;-44
2021/07/10 10:35:19;;;;;;;1999.90;999.90;;;16.50;78.00;;;;;;5054741;28;20173;-44
2021/07/10 10:37:46;;;;;;;1999.90;999.90;;;16.60;83.00;;;;;;5054907;28;20506;-44
2021/07/10 10:40:17;;;;;;;1999.90;999.90;;;16.50;80.70;;;;;;5054065;28;20169;-44
2021/07/10 10:42:45;;;;;;;1999.90;999.90;;;16.50;76.80;;;;;;5054552;28;20161;-44
2021/07/10 10:45:12;;;;;;;1999.90;999.90;;;16.40;78.30;;;;;;5054275;28;20183;-43
2021/07/10 10:47:45;;;;;;;1999.90;999.90;;;16.40;82.70;;;;;;5054464;28;20234;-49
2021/07/10 10:50:30;;;;;;;1999.90;999.90;;;16.40;85.10;;;;;;5054494;28;20154;-45
2021/07/10 10:52:59;;;;;;;1999.90;999.90;;;16.60;82.40;;;;;;5054244;28;20568;-46
2021/07/10 10:55:32;;;;;;;1999.90;999.90;;;16.50;86.80;;;;;;5054431;28;20200;-44
2021/07/10 10:58:19;;;;;;;1999.90;999.90;;;16.60;74.20;;;;;;5054300;28;20173;-47
2021/07/10 11:00:49;;;;;;;1999.90;999.90;;;16.60;77.50;;;;;;5054071;28;20500;-44
2021/07/10 11:03:20;;;;;;;1999.90;999.90;;;16.50;77.20;;;;;;5036456;28;20161;-44
2021/07/10 11:05:58;;;;;;;1999.90;999.90;;;16.40;82.50;;;;;;5054060;28;20185;-44
2021/07/10 11:08:30;;;;;;;1999.90;999.90;;;16.50;87.50;;;;;;5053925;28;20165;-44
2021/07/10 11:10:56;;;;;;;1999.90;999.90;;;16.60;81.20;;;;;;5053784;28;20185;-44
2021/07/10 11:13:29;;;;;;;1999.90;999.90;;;16.60;89.80;;;;;;5053848;28;20275;-49
2021/07/10 11:16:20;;;;;;;1999.90;999.90;;;16.70;80.30;;;;;;5053787;28;20682;-50
2021/07/10 11:19:00;;;;;;;1999.90;999.90;;;16.60;80.70;;;;;;5053869;28;20543;-43
2021/07/10 11:21:39;;;;;;;1999.90;999.90;;;16.60;87.40;;;;;;5053389;28;20173;-43
2021/07/10 11:24:20;;;;;;;1999.90;999.90;;;16.60;82.80;;;;;;5053669;28;20156;-44
2021/07/10 11:26:56;;;;;;;1999.90;999.90;;;16.70;89.70;;;;;;5053466;28;20542;-44
2021/07/10 11:29:36;;;;;;;1999.90;999.90;;;16.70;87.80;;;;;;5053695;28;20164;-51
2021/07/10 11:32:12;;;;;;;1999.90;999.90;;;16.80;85.60;;;;;;5053702;28;20193;-44
2021/07/10 11:34:47;;;;;;;1999.90;999.90;;;16.80;87.60;;;;;;5053511;28;20215;-44
2021/07/10 11:37:19;;;;;;;1999.90;999.90;;;16.70;81.00;;;;;;5053387;28;20168;-43
2021/07/10 11:39:56;;;;;;;1999.90;999.90;;;16.70;89.70;;;;;;5035333;28;20173;-45
2021/07/10 11:42:26;;;;;;;1999.90;999.90;;;16.70;90.30;;;;;;5053323;28;20169;-44
2021/07/10 11:44:54;;;;;;;1999.90;999.90;;;16.80;85.50;;;;;;5053006;28;20224;-45
2021/07/10 11:47:35;;;;;;;1999.90;999.90;;;16.80;90.90;;;;;;5053052;28;20351;-45
2021/07/10 11:50:11;;;;;;;1999.90;999.90;;;16.80;87.40;;;;;;5053011;28;20226;-45
2021/07/10 11:52:38;;;;;;;1999.90;999.90;;;16.80;89.00;;;;;;5053123;28;20196;-44
2021/07/10 11:55:08;;;;;;;1999.90;999.90;;;16.90;89.10;;;;;;5053042;28;20170;-46
2021/07/10 11:57:40;;;;;;;1999.90;999.90;;;16.90;93.20;;;;;;5052888;28;20181;-44
2021/07/10 12:00:17;;;;;;;1999.90;999.90;;;16.90;89.50;;;;;;5052963;28;20166;-45
2021/07/10 12:02:44;;;;;;;1999.90;999.90;;;16.90;87.80;;;;;;5052799;28;20173;-45
2021/07/10 12:05:17;;;;;;;1999.90;999.90;;;16.90;90.50;;;;;;5053014;28;20170;-44
2021/07/10 12:07:48;;;;;;;1999.90;999.90;;;16.90;90.60;;;;;;5052998;28;20531;-44
2021/07/10 12:10:26;;;;;;;1999.90;999.90;;;16.90;90.70;;;;;;5053017;28;20298;-43
2021/07/10 12:12:59;;;;;;;1999.90;999.90;;;16.90;87.90;;;;;;5052484;28;20231;-44
2021/07/10 12:15:30;;;;;;;1999.90;999.90;;;16.80;90.40;;;;;;5053007;28;20165;-51